createdAt,value
2024-05-09T00:00:48.531Z,77.34
2024-05-09T00:01:48.435Z,77.34
2024-05-09T00:02:48.410Z,77.48
2024-05-09T00:03:48.475Z,78.20
2024-05-09T00:04:48.430Z,77.69
2024-05-09T00:05:48.409Z,77.45
2024-05-09T00:06:48.343Z,77.69
2024-05-09T00:07:48.413Z,77.69
2024-05-09T00:08:48.350Z,77.69
2024-05-09T00:09:48.296Z,78.09
2024-05-09T00:10:48.398Z,77.89
2024-05-09T00:11:48.390Z,77.89
2024-05-09T00:12:48.278Z,77.89
2024-05-09T00:13:48.295Z,77.38
2024-05-09T00:14:48.287Z,76.93
2024-05-09T00:15:48.240Z,76.73
2024-05-09T00:16:48.256Z,76.87
2024-05-09T00:17:48.380Z,76.56
2024-05-09T00:18:48.323Z,76.02
2024-05-09T00:19:48.287Z,76.12
2024-05-09T00:20:48.316Z,75.82
2024-05-09T00:21:48.171Z,76.06
2024-05-09T00:22:48.276Z,76.67
2024-05-09T00:23:48.165Z,76.77
2024-05-09T00:24:48.154Z,76.67
2024-05-09T00:25:48.211Z,75.82
2024-05-09T00:26:48.140Z,75.20
2024-05-09T00:27:48.123Z,75.00
2024-05-09T00:28:48.216Z,75.31
2024-05-09T00:29:48.136Z,75.31
2024-05-09T00:30:48.136Z,75.51
2024-05-09T00:31:48.185Z,75.82
2024-05-09T00:32:48.249Z,75.82
2024-05-09T00:33:48.220Z,75.51
2024-05-09T00:34:48.075Z,75.51
2024-05-09T00:35:48.066Z,75.71
2024-05-09T00:36:48.064Z,75.31
2024-05-09T00:37:48.065Z,75.41
2024-05-09T00:38:48.030Z,75.71
2024-05-09T00:39:47.997Z,75.20
2024-05-09T00:40:48.093Z,75.57
2024-05-09T00:41:48.035Z,75.07
2024-05-09T00:42:47.973Z,74.86
2024-05-09T00:43:48.033Z,74.45
2024-05-09T00:44:47.962Z,74.25
2024-05-09T00:45:47.946Z,75.10
2024-05-09T00:46:48.006Z,75.51
2024-05-09T00:47:48.151Z,75.71
2024-05-09T00:48:48.086Z,75.20
2024-05-09T00:49:48.008Z,74.59
2024-05-09T00:50:48.022Z,75.20
2024-05-09T00:51:47.896Z,75.20
2024-05-09T00:52:47.921Z,74.59
2024-05-09T00:53:47.938Z,74.79
2024-05-09T00:54:47.948Z,74.79
2024-05-09T00:55:47.996Z,75.20
2024-05-09T00:56:47.856Z,75.00
2024-05-09T00:57:47.849Z,74.90
2024-05-09T00:58:47.883Z,75.31
2024-05-09T00:59:47.802Z,75.10
2024-05-09T01:00:47.923Z,75.00
2024-05-09T01:01:48.374Z,75.31
2024-05-09T01:02:47.889Z,75.41
2024-05-09T01:03:51.021Z,75.10
2024-05-09T01:04:47.880Z,75.10
2024-05-09T01:05:47.803Z,75.31
2024-05-09T01:06:47.771Z,75.31
2024-05-09T01:07:47.762Z,75.54
2024-05-09T01:08:47.724Z,75.54
2024-05-09T01:09:47.761Z,75.65
2024-05-09T01:10:48.678Z,76.16
2024-05-09T01:11:47.883Z,76.40
2024-05-09T01:12:47.698Z,76.50
2024-05-09T01:13:47.709Z,76.60
2024-05-09T01:14:47.681Z,76.70
2024-05-09T01:15:47.657Z,76.40
2024-05-09T01:16:47.761Z,76.40
2024-05-09T01:17:47.909Z,76.40
2024-05-09T01:18:47.722Z,76.29
2024-05-09T01:19:47.787Z,76.40
2024-05-09T01:20:47.606Z,76.60
2024-05-09T01:21:48.146Z,76.60
2024-05-09T01:22:47.620Z,76.70
2024-05-09T01:23:47.574Z,76.81
2024-05-09T01:24:47.577Z,76.90
2024-05-09T01:25:47.614Z,76.60
2024-05-09T01:26:47.564Z,76.60
2024-05-09T01:27:47.546Z,76.60
2024-05-09T01:28:47.560Z,76.90
2024-05-09T01:29:47.510Z,77.31
2024-05-09T01:30:47.515Z,77.42
2024-05-09T01:31:47.635Z,77.86
2024-05-09T01:32:47.660Z,78.52
2024-05-09T01:33:47.667Z,78.68
2024-05-09T01:34:47.529Z,78.31
2024-05-09T01:35:47.448Z,77.97
2024-05-09T01:36:47.455Z,77.66
2024-05-09T01:37:47.627Z,77.76
2024-05-09T01:38:47.440Z,78.07
2024-05-09T01:39:47.442Z,77.97
2024-05-09T01:40:47.499Z,78.07
2024-05-09T01:41:47.414Z,78.27
2024-05-09T01:42:47.461Z,78.38
2024-05-09T01:43:47.453Z,78.38
2024-05-09T01:44:47.407Z,78.27
2024-05-09T01:45:47.378Z,78.27
2024-05-09T01:46:47.428Z,78.82
2024-05-09T01:47:47.399Z,79.13
2024-05-09T01:48:47.477Z,79.37
2024-05-09T01:49:47.346Z,80.22
2024-05-09T01:50:47.508Z,81.04
2024-05-09T01:51:47.312Z,81.04
2024-05-09T01:52:47.398Z,80.74
2024-05-09T01:53:47.288Z,80.63
2024-05-09T01:54:47.286Z,80.43
2024-05-09T01:55:47.286Z,80.43
2024-05-09T01:56:47.249Z,80.63
2024-05-09T01:57:47.238Z,80.63
2024-05-09T01:58:47.304Z,80.63
2024-05-09T01:59:47.265Z,80.63
2024-05-09T02:00:47.330Z,80.74
2024-05-09T02:01:56.554Z,80.94
2024-05-09T02:02:47.439Z,81.15
2024-05-09T02:03:47.382Z,81.24
2024-05-09T02:04:47.289Z,80.94
2024-05-09T02:05:47.994Z,80.63
2024-05-09T02:06:47.146Z,80.29
2024-05-09T02:07:47.192Z,79.98
2024-05-09T02:08:47.160Z,79.78
2024-05-09T02:09:47.222Z,79.88
2024-05-09T02:10:47.822Z,79.57
2024-05-09T02:11:47.190Z,79.68
2024-05-09T02:12:47.081Z,79.88
2024-05-09T02:13:47.119Z,79.57
2024-05-09T02:14:47.096Z,79.68
2024-05-09T02:15:47.083Z,79.68
2024-05-09T02:16:47.098Z,79.88
2024-05-09T02:17:47.248Z,79.68
2024-05-09T02:18:47.194Z,80.08
2024-05-09T02:19:47.099Z,79.98
2024-05-09T02:20:47.079Z,80.08
2024-05-09T02:21:47.024Z,80.19
2024-05-09T02:22:47.013Z,80.22
2024-05-09T02:23:47.002Z,80.43
2024-05-09T02:24:47.003Z,80.83
2024-05-09T02:25:47.030Z,81.04
2024-05-09T02:26:46.983Z,81.49
2024-05-09T02:27:46.938Z,81.65
2024-05-09T02:28:47.106Z,81.56
2024-05-09T02:29:46.941Z,81.35
2024-05-09T02:30:46.940Z,81.15
2024-05-09T02:31:46.988Z,81.15
2024-05-09T02:32:47.120Z,81.15
2024-05-09T02:33:47.222Z,81.01
2024-05-09T02:34:46.948Z,81.01
2024-05-09T02:35:46.870Z,81.01
2024-05-09T02:36:46.845Z,80.69
2024-05-09T02:37:46.882Z,80.49
2024-05-09T02:38:46.828Z,80.19
2024-05-09T02:39:46.873Z,80.08
2024-05-09T02:40:46.890Z,80.19
2024-05-09T02:41:46.817Z,80.19
2024-05-09T02:42:46.792Z,80.60
2024-05-09T02:43:46.822Z,80.83
2024-05-09T02:44:46.801Z,80.83
2024-05-09T02:45:46.782Z,81.38
2024-05-09T02:46:46.793Z,81.90
2024-05-09T02:47:46.892Z,82.65
2024-05-09T02:48:46.840Z,82.86
2024-05-09T02:49:46.808Z,82.71
2024-05-09T02:50:46.937Z,82.41
2024-05-09T02:51:46.709Z,81.90
2024-05-09T02:52:46.751Z,81.45
2024-05-09T02:53:46.759Z,81.24
2024-05-09T02:54:46.682Z,81.04
2024-05-09T02:55:46.812Z,81.04
2024-05-09T02:56:46.689Z,80.83
2024-05-09T02:57:46.644Z,81.15
2024-05-09T02:58:46.698Z,81.24
2024-05-09T02:59:46.648Z,81.35
2024-05-09T03:00:46.697Z,81.56
2024-05-09T03:01:46.794Z,81.45
2024-05-09T03:02:46.661Z,81.79
2024-05-09T03:03:46.714Z,82.41
2024-05-09T03:04:46.722Z,83.27
2024-05-09T03:05:47.079Z,84.19
2024-05-09T03:06:46.588Z,84.19
2024-05-09T03:07:46.604Z,84.09
2024-05-09T03:08:46.608Z,83.68
2024-05-09T03:09:47.173Z,83.13
2024-05-09T03:10:46.544Z,83.03
2024-05-09T03:11:46.697Z,82.71
2024-05-09T03:12:46.540Z,82.62
2024-05-09T03:13:46.511Z,82.62
2024-05-09T03:14:46.493Z,82.78
2024-05-09T03:15:46.501Z,82.89
2024-05-09T03:16:46.506Z,83.23
2024-05-09T03:17:46.653Z,83.44
2024-05-09T03:18:46.523Z,83.29
2024-05-09T03:19:46.466Z,82.78
2024-05-09T03:20:46.461Z,82.37
2024-05-09T03:21:46.410Z,82.07
2024-05-09T03:22:46.481Z,81.93
2024-05-09T03:23:46.496Z,81.93
2024-05-09T03:24:46.381Z,81.62
2024-05-09T03:25:46.405Z,81.51
2024-05-09T03:26:46.361Z,81.51
2024-05-09T03:27:46.365Z,81.51
2024-05-09T03:28:46.382Z,81.72
2024-05-09T03:29:46.363Z,81.62
2024-05-09T03:30:46.322Z,81.48
2024-05-09T03:31:46.381Z,81.27
2024-05-09T03:32:46.513Z,81.07
2024-05-09T03:33:46.427Z,80.87
2024-05-09T03:34:46.312Z,80.66
2024-05-09T03:35:46.494Z,80.97
2024-05-09T03:36:46.381Z,80.97
2024-05-09T03:37:46.280Z,80.97
2024-05-09T03:38:46.394Z,81.51
2024-05-09T03:39:46.242Z,81.72
2024-05-09T03:40:46.424Z,82.17
2024-05-09T03:41:46.210Z,82.78
2024-05-09T03:42:46.192Z,83.39
2024-05-09T03:43:46.228Z,83.95
2024-05-09T03:44:46.200Z,83.95
2024-05-09T03:45:46.179Z,83.70
2024-05-09T03:46:46.194Z,83.60
2024-05-09T03:47:46.561Z,83.39
2024-05-09T03:48:46.330Z,83.29
2024-05-09T03:49:46.192Z,83.19
2024-05-09T03:50:46.191Z,83.09
2024-05-09T03:51:46.127Z,83.15
2024-05-09T03:52:46.133Z,82.95
2024-05-09T03:53:46.165Z,82.84
2024-05-09T03:54:46.119Z,82.64
2024-05-09T03:55:46.111Z,82.23
2024-05-09T03:56:46.126Z,82.43
2024-05-09T03:57:46.121Z,82.34
2024-05-09T03:58:46.093Z,83.05
2024-05-09T03:59:46.033Z,83.50
2024-05-09T04:00:46.426Z,84.25
2024-05-09T04:01:46.205Z,85.07
2024-05-09T04:02:46.080Z,85.83
2024-05-09T04:03:46.313Z,86.44
2024-05-09T04:04:46.080Z,86.44
2024-05-09T04:05:46.323Z,85.93
2024-05-09T04:06:45.986Z,85.69
2024-05-09T04:07:46.016Z,85.48
2024-05-09T04:08:46.004Z,85.17
2024-05-09T04:09:45.934Z,85.28
2024-05-09T04:10:46.100Z,85.03
2024-05-09T04:11:46.037Z,84.72
2024-05-09T04:12:45.909Z,84.63
2024-05-09T04:13:45.929Z,84.63
2024-05-09T04:14:45.896Z,84.97
2024-05-09T04:15:45.881Z,85.38
2024-05-09T04:16:45.913Z,85.79
2024-05-09T04:17:46.031Z,85.89
2024-05-09T04:18:46.082Z,85.99
2024-05-09T04:19:45.878Z,85.99
2024-05-09T04:20:45.870Z,85.38
2024-05-09T04:21:45.827Z,85.07
2024-05-09T04:22:45.839Z,84.72
2024-05-09T04:23:45.880Z,84.83
2024-05-09T04:24:45.783Z,84.72
2024-05-09T04:25:46.039Z,84.42
2024-05-09T04:26:45.793Z,84.31
2024-05-09T04:27:45.764Z,84.01
2024-05-09T04:28:45.787Z,83.91
2024-05-09T04:29:45.772Z,84.11
2024-05-09T04:30:45.723Z,84.42
2024-05-09T04:31:45.796Z,84.83
2024-05-09T04:32:45.871Z,84.83
2024-05-09T04:33:45.812Z,84.63
2024-05-09T04:34:45.737Z,84.69
2024-05-09T04:35:45.805Z,84.38
2024-05-09T04:36:45.676Z,84.28
2024-05-09T04:37:45.718Z,84.28
2024-05-09T04:38:45.664Z,84.72
2024-05-09T04:39:45.638Z,85.44
2024-05-09T04:40:45.686Z,85.75
2024-05-09T04:41:45.641Z,85.96
2024-05-09T04:42:45.673Z,85.75
2024-05-09T04:43:45.656Z,85.40
2024-05-09T04:44:45.589Z,84.89
2024-05-09T04:45:45.618Z,84.55
2024-05-09T04:46:45.622Z,83.93
2024-05-09T04:47:45.697Z,83.38
2024-05-09T04:48:45.815Z,82.53
2024-05-09T04:49:45.612Z,81.71
2024-05-09T04:50:45.650Z,80.85
2024-05-09T04:51:45.764Z,80.51
2024-05-09T04:52:45.522Z,79.69
2024-05-09T04:53:45.597Z,79.35
2024-05-09T04:54:45.492Z,77.85
2024-05-09T04:55:45.662Z,76.39
2024-05-09T04:56:45.532Z,75.47
2024-05-09T04:57:45.466Z,75.57
2024-05-09T04:58:45.516Z,75.57
2024-05-09T04:59:45.458Z,75.67
2024-05-09T05:00:45.574Z,75.43
2024-05-09T05:01:45.498Z,75.43
2024-05-09T05:02:46.036Z,75.33
2024-05-09T05:03:45.509Z,75.13
2024-05-09T05:04:45.695Z,74.89
2024-05-09T05:05:46.165Z,74.48
2024-05-09T05:06:45.384Z,74.79
2024-05-09T05:07:45.388Z,74.24
2024-05-09T05:08:45.434Z,73.43
2024-05-09T05:09:45.438Z,74.18
2024-05-09T05:10:45.840Z,74.04
2024-05-09T05:11:45.408Z,73.39
2024-05-09T05:12:45.315Z,72.25
2024-05-09T05:13:45.353Z,71.20
2024-05-09T05:14:45.320Z,70.76
2024-05-09T05:15:45.278Z,69.81
2024-05-09T05:16:45.320Z,69.20
2024-05-09T05:17:45.404Z,69.10
2024-05-09T05:18:45.298Z,68.76
2024-05-09T05:19:45.386Z,68.43
2024-05-09T05:20:59.811Z,67.92
2024-05-09T05:21:45.231Z,67.61
2024-05-09T05:22:45.246Z,67.82
2024-05-09T05:23:45.261Z,67.51
2024-05-09T05:24:45.199Z,68.12
2024-05-09T05:25:45.243Z,67.89
2024-05-09T05:26:45.207Z,67.48
2024-05-09T05:27:45.153Z,67.18
2024-05-09T05:28:45.251Z,68.43
2024-05-09T05:29:45.189Z,69.60
2024-05-09T05:30:45.820Z,70.25
2024-05-09T05:31:45.245Z,70.52
2024-05-09T05:32:45.187Z,70.42
2024-05-09T05:33:45.209Z,70.01
2024-05-09T05:34:45.120Z,69.81
2024-05-09T05:35:45.152Z,70.25
2024-05-09T05:36:45.103Z,71.73
2024-05-09T05:37:45.095Z,72.55
2024-05-09T05:38:45.264Z,72.85
2024-05-09T05:39:45.044Z,72.75
2024-05-09T05:40:45.102Z,72.01
2024-05-09T05:41:45.044Z,70.96
2024-05-09T05:42:45.017Z,70.62
2024-05-09T05:43:45.045Z,70.21
2024-05-09T05:44:45.012Z,70.01
2024-05-09T05:45:44.979Z,70.11
2024-05-09T05:46:45.021Z,69.47
2024-05-09T05:47:45.290Z,68.87
2024-05-09T05:48:45.091Z,68.35
2024-05-09T05:49:45.015Z,68.05
2024-05-09T05:50:45.067Z,67.95
2024-05-09T05:51:44.933Z,67.98
2024-05-09T05:52:44.960Z,68.08
2024-05-09T05:53:44.980Z,67.78
2024-05-09T05:54:44.901Z,69.43
2024-05-09T05:55:44.967Z,70.92
2024-05-09T05:56:44.945Z,71.33
2024-05-09T05:57:44.898Z,72.38
2024-05-09T05:58:45.127Z,72.78
2024-05-09T05:59:44.851Z,72.58
2024-05-09T06:00:45.058Z,72.69
2024-05-09T06:01:44.832Z,72.78
2024-05-09T06:02:45.051Z,73.19
2024-05-09T06:03:45.023Z,73.80
2024-05-09T06:04:44.879Z,73.80
2024-05-09T06:05:44.912Z,73.26
2024-05-09T06:06:44.805Z,73.06
2024-05-09T06:07:44.816Z,72.45
2024-05-09T06:08:45.002Z,72.75
2024-05-09T06:09:47.419Z,71.88
2024-05-09T06:10:44.935Z,71.47
2024-05-09T06:11:44.778Z,70.86
2024-05-09T06:12:44.713Z,70.55
2024-05-09T06:13:44.804Z,70.38
2024-05-09T06:14:44.697Z,70.86
2024-05-09T06:15:44.694Z,71.26
2024-05-09T06:16:44.707Z,71.44
2024-05-09T06:17:45.031Z,71.13
2024-05-09T06:18:44.829Z,69.95
2024-05-09T06:19:44.849Z,67.62
2024-05-09T06:20:44.755Z,63.58
2024-05-09T06:21:44.635Z,61.30
2024-05-09T06:22:44.670Z,57.78
2024-05-09T06:23:44.707Z,58.49
2024-05-09T06:24:44.621Z,57.51
2024-05-09T06:25:44.783Z,56.02
2024-05-09T06:26:44.660Z,55.56
2024-05-09T06:27:44.571Z,55.16
2024-05-09T06:28:44.603Z,53.47
2024-05-09T06:29:44.577Z,49.54
2024-05-09T06:30:44.550Z,47.28
2024-05-09T06:31:44.568Z,46.12
2024-05-09T06:32:44.671Z,44.65
2024-05-09T06:33:44.624Z,43.41
2024-05-09T06:34:44.696Z,42.47
2024-05-09T06:35:45.035Z,41.85
2024-05-09T06:36:44.468Z,41.77
2024-05-09T06:37:44.515Z,41.75
2024-05-09T06:38:44.518Z,40.22
2024-05-09T06:39:44.443Z,40.40
2024-05-09T06:40:44.913Z,40.00
2024-05-09T06:41:44.497Z,40.40
2024-05-09T06:42:44.431Z,38.99
2024-05-09T06:43:44.596Z,37.68
2024-05-09T06:44:44.448Z,38.20
2024-05-09T06:45:44.434Z,38.81
2024-05-09T06:46:44.427Z,38.41
2024-05-09T06:47:44.521Z,38.43
2024-05-09T06:48:44.734Z,38.95
2024-05-09T06:49:44.447Z,39.46
2024-05-09T06:50:44.445Z,38.98
2024-05-09T06:51:44.338Z,40.16
2024-05-09T06:52:44.517Z,38.73
2024-05-09T06:53:44.317Z,37.98
2024-05-09T06:54:44.305Z,36.75
2024-05-09T06:55:44.326Z,35.34
2024-05-09T06:56:44.374Z,35.22
2024-05-09T06:57:44.278Z,35.22
2024-05-09T06:58:44.290Z,35.72
2024-05-09T06:59:44.328Z,34.92
2024-05-09T07:00:44.315Z,36.11
2024-05-09T07:01:44.242Z,35.31
2024-05-09T07:02:44.467Z,34.61
2024-05-09T07:03:44.328Z,34.81
2024-05-09T07:04:44.238Z,34.92
2024-05-09T07:05:45.239Z,37.34
2024-05-09T07:06:44.216Z,36.94
2024-05-09T07:07:44.197Z,36.43
2024-05-09T07:08:44.216Z,35.72
2024-05-09T07:09:44.186Z,34.41
2024-05-09T07:10:44.394Z,35.90
2024-05-09T07:11:44.228Z,35.19
2024-05-09T07:12:44.139Z,34.76
2024-05-09T07:13:44.211Z,33.65
2024-05-09T07:14:44.163Z,33.56
2024-05-09T07:15:44.118Z,33.73
2024-05-09T07:16:44.122Z,33.52
2024-05-09T07:17:44.274Z,33.23
2024-05-09T07:18:44.191Z,33.11
2024-05-09T07:19:44.077Z,32.70
2024-05-09T07:20:44.113Z,31.60
2024-05-09T07:21:44.049Z,31.50
2024-05-09T07:22:44.042Z,32.50
2024-05-09T07:23:46.850Z,33.18
2024-05-09T07:24:44.034Z,32.67
2024-05-09T07:25:44.059Z,32.37
2024-05-09T07:26:44.123Z,31.86
2024-05-09T07:27:44.004Z,31.86
2024-05-09T07:28:44.045Z,31.96
2024-05-09T07:29:44.042Z,31.37
2024-05-09T07:30:44.004Z,32.06
2024-05-09T07:31:43.948Z,31.76
2024-05-09T07:32:44.161Z,30.17
2024-05-09T07:33:44.029Z,30.07
2024-05-09T07:34:43.944Z,29.50
2024-05-09T07:35:44.002Z,31.41
2024-05-09T07:36:43.908Z,32.01
2024-05-09T07:37:43.922Z,32.09
2024-05-09T07:38:44.120Z,30.99
2024-05-09T07:39:43.986Z,29.99
2024-05-09T07:40:43.913Z,29.30
2024-05-09T07:41:43.949Z,28.80
2024-05-09T07:42:43.863Z,28.31
2024-05-09T07:43:43.868Z,29.71
2024-05-09T07:44:43.946Z,29.85
2024-05-09T07:45:51.477Z,30.68
2024-05-09T07:51:32.044Z,29.54
2024-05-09T07:53:37.302Z,28.83
2024-05-09T07:53:51.381Z,28.62
2024-05-09T07:54:23.878Z,28.11
2024-05-09T07:55:23.819Z,28.40
2024-05-09T07:56:24.564Z,26.93
2024-05-09T07:57:23.725Z,26.83
2024-05-09T07:58:23.663Z,26.42
2024-05-09T07:59:23.811Z,26.02
2024-05-09T08:00:29.605Z,27.00
2024-05-09T08:01:24.647Z,27.89
2024-05-09T08:02:23.817Z,26.90
2024-05-09T08:03:23.989Z,28.19
2024-05-09T08:04:26.461Z,28.50
2024-05-09T08:05:23.738Z,27.99
2024-05-09T08:06:23.612Z,27.39
2024-05-09T08:07:23.643Z,27.19
2024-05-09T08:08:23.606Z,27.61
2024-05-09T08:09:23.572Z,28.99
2024-05-09T08:10:28.534Z,28.79
2024-05-09T08:11:23.628Z,28.99
2024-05-09T08:12:23.532Z,27.89
2024-05-09T08:13:23.636Z,27.00
2024-05-09T08:14:23.543Z,27.58
2024-05-09T08:15:23.581Z,27.58
2024-05-09T08:16:23.834Z,26.93
2024-05-09T08:17:23.631Z,28.72
2024-05-09T08:18:23.591Z,28.45
2024-05-09T08:19:23.577Z,27.35
2024-05-09T08:20:30.929Z,26.06
2024-05-09T08:21:23.492Z,26.65
2024-05-09T08:22:23.605Z,27.03
2024-05-09T08:23:23.483Z,27.33
2024-05-09T08:24:23.458Z,25.93
2024-05-09T08:25:23.458Z,27.03
2024-05-09T08:26:23.469Z,28.03
2024-05-09T08:27:23.438Z,27.14
2024-05-09T08:28:23.490Z,27.26
2024-05-09T08:29:23.405Z,27.18
2024-05-09T08:30:30.100Z,29.05
2024-05-09T08:31:23.521Z,28.14
2024-05-09T08:32:23.502Z,27.09
2024-05-09T08:33:23.510Z,28.20
2024-05-09T08:34:23.453Z,26.92
2024-05-09T08:35:23.389Z,27.64
2024-05-09T08:36:23.471Z,29.63
2024-05-09T08:37:26.211Z,29.13
2024-05-09T08:38:23.342Z,30.21
2024-05-09T08:39:23.314Z,30.19
2024-05-09T08:40:30.745Z,29.69
2024-05-09T08:41:23.354Z,29.79
2024-05-09T08:42:23.316Z,29.50
2024-05-09T08:43:23.588Z,29.66
2024-05-09T08:44:23.277Z,29.57
2024-05-09T08:45:23.299Z,26.91
2024-05-09T08:46:23.371Z,27.34
2024-05-09T08:47:23.414Z,30.13
2024-05-09T08:48:23.525Z,30.52
2024-05-09T08:49:23.425Z,29.32
2024-05-09T08:50:32.058Z,30.49
2024-05-09T08:51:23.235Z,30.49
2024-05-09T08:52:23.251Z,30.32
2024-05-09T08:53:23.256Z,30.23
2024-05-09T08:54:23.230Z,30.23
2024-05-09T08:55:23.196Z,30.13
2024-05-09T08:56:23.199Z,30.76
2024-05-09T08:57:23.181Z,30.38
2024-05-09T08:58:23.207Z,30.97
2024-05-09T08:59:23.153Z,31.98
2024-05-09T09:00:33.453Z,31.98
2024-05-09T09:01:23.279Z,32.89
2024-05-09T09:02:23.362Z,34.00
2024-05-09T09:03:23.233Z,32.92
2024-05-09T09:04:23.252Z,33.72
2024-05-09T09:05:23.267Z,33.02
2024-05-09T09:06:23.120Z,33.34
2024-05-09T09:07:23.208Z,35.16
2024-05-09T09:08:23.091Z,35.56
2024-05-09T09:09:23.099Z,35.47
2024-05-09T09:10:29.720Z,36.27
2024-05-09T09:11:23.113Z,37.59
2024-05-09T09:12:23.085Z,38.29
2024-05-09T09:13:23.079Z,38.20
2024-05-09T09:14:23.078Z,39.14
2024-05-09T09:15:23.091Z,39.87
2024-05-09T09:16:23.298Z,39.59
2024-05-09T09:17:23.127Z,40.71
2024-05-09T09:18:23.083Z,42.19
2024-05-09T09:19:23.417Z,41.80
2024-05-09T09:20:29.127Z,41.09
2024-05-09T09:21:22.981Z,38.70
2024-05-09T09:22:22.989Z,38.40
2024-05-09T09:23:22.960Z,39.59
2024-05-09T09:24:22.947Z,38.71
2024-05-09T09:25:22.944Z,38.61
2024-05-09T09:26:22.971Z,39.41
2024-05-09T09:27:22.929Z,39.51
2024-05-09T09:28:22.981Z,39.81
2024-05-09T09:29:22.916Z,39.51
2024-05-09T09:30:34.058Z,39.43
2024-05-09T09:31:22.951Z,39.63
2024-05-09T09:32:22.904Z,39.23
2024-05-09T09:33:23.052Z,40.25
2024-05-09T09:34:23.067Z,40.35
2024-05-09T09:35:23.047Z,39.75
2024-05-09T09:36:22.920Z,38.93
2024-05-09T09:37:22.951Z,40.22
2024-05-09T09:38:22.847Z,38.57
2024-05-09T09:39:22.815Z,35.74
2024-05-09T09:40:30.985Z,34.01
2024-05-09T09:41:22.883Z,32.09
2024-05-09T09:42:22.865Z,31.76
2024-05-09T09:43:23.237Z,32.11
2024-05-09T09:44:22.781Z,30.49
2024-05-09T09:45:22.852Z,28.97
2024-05-09T09:46:22.856Z,28.85
2024-05-09T09:47:22.938Z,28.70
2024-05-09T09:48:23.309Z,27.79
2024-05-09T09:49:22.827Z,26.68
2024-05-09T09:50:27.960Z,27.55
2024-05-09T09:51:22.681Z,26.73
2024-05-09T09:52:22.768Z,26.92
2024-05-09T09:53:22.704Z,26.81
2024-05-09T09:54:22.675Z,26.70
2024-05-09T09:55:22.809Z,25.29
2024-05-09T09:56:22.664Z,22.52
2024-05-09T09:57:22.673Z,22.41
2024-05-09T09:58:22.817Z,24.11
2024-05-09T09:59:22.622Z,24.74
2024-05-09T10:00:27.432Z,25.31
2024-05-09T10:01:22.714Z,26.14
2024-05-09T10:02:22.785Z,26.86
2024-05-09T10:03:22.709Z,27.77
2024-05-09T10:04:22.658Z,28.47
2024-05-09T10:05:22.707Z,27.33
2024-05-09T10:06:22.569Z,26.20
2024-05-09T10:07:22.592Z,26.67
2024-05-09T10:08:22.567Z,24.66
2024-05-09T10:09:22.523Z,25.63
2024-05-09T10:10:29.949Z,24.05
2024-05-09T10:11:22.694Z,24.41
2024-05-09T10:12:22.502Z,24.10
2024-05-09T10:13:22.640Z,23.49
2024-05-09T10:14:22.482Z,23.57
2024-05-09T10:15:22.468Z,23.13
2024-05-09T10:16:22.560Z,25.08
2024-05-09T10:17:22.499Z,26.40
2024-05-09T10:18:22.504Z,27.11
2024-05-09T10:19:22.642Z,27.04
2024-05-09T10:20:27.922Z,29.54
2024-05-09T10:21:22.430Z,30.02
2024-05-09T10:22:22.472Z,29.25
2024-05-09T10:23:22.387Z,29.28
2024-05-09T10:24:22.430Z,31.41
2024-05-09T10:25:22.653Z,33.15
2024-05-09T10:26:22.382Z,32.26
2024-05-09T10:27:22.365Z,32.67
2024-05-09T10:28:22.405Z,33.58
2024-05-09T10:29:22.423Z,35.08
2024-05-09T10:30:29.728Z,35.79
2024-05-09T10:31:22.375Z,36.39
2024-05-09T10:32:22.432Z,36.39
2024-05-09T10:33:22.385Z,37.67
2024-05-09T10:34:22.553Z,36.07
2024-05-09T10:35:22.272Z,35.71
2024-05-09T10:36:22.429Z,33.29
2024-05-09T10:37:22.403Z,33.20
2024-05-09T10:38:22.235Z,30.97
2024-05-09T10:39:22.280Z,29.32
2024-05-09T10:40:26.629Z,27.07
2024-05-09T10:41:22.303Z,27.81
2024-05-09T10:42:22.193Z,25.40
2024-05-09T10:43:22.360Z,24.98
2024-05-09T10:44:22.227Z,23.19
2024-05-09T10:45:22.214Z,22.81
2024-05-09T10:46:22.217Z,23.60
2024-05-09T10:47:22.225Z,23.77
2024-05-09T10:48:22.280Z,23.74
2024-05-09T10:49:22.201Z,21.06
2024-05-09T10:50:28.344Z,22.62
2024-05-09T10:51:22.152Z,21.44
2024-05-09T10:52:22.180Z,20.94
2024-05-09T10:53:22.211Z,21.34
2024-05-09T10:54:22.089Z,21.64
2024-05-09T10:55:22.344Z,22.69
2024-05-09T10:56:22.104Z,24.40
2024-05-09T10:57:22.073Z,25.17
2024-05-09T10:58:22.098Z,25.08
2024-05-09T10:59:22.102Z,26.10
2024-05-09T11:00:27.808Z,26.31
2024-05-09T11:01:22.159Z,26.89
2024-05-09T11:02:22.896Z,24.29
2024-05-09T11:03:22.062Z,23.56
2024-05-09T11:04:22.093Z,24.08
2024-05-09T11:05:22.360Z,24.30
2024-05-09T11:06:22.007Z,23.95
2024-05-09T11:07:22.134Z,24.67
2024-05-09T11:08:21.989Z,25.67
2024-05-09T11:09:21.959Z,26.29
2024-05-09T11:10:27.769Z,26.44
2024-05-09T11:11:22.016Z,27.87
2024-05-09T11:12:24.357Z,29.00
2024-05-09T11:13:22.067Z,29.21
2024-05-09T11:14:21.927Z,27.55
2024-05-09T11:15:21.920Z,25.89
2024-05-09T11:16:22.251Z,26.20
2024-05-09T11:17:21.976Z,27.53
2024-05-09T11:18:24.992Z,26.92
2024-05-09T11:19:22.126Z,26.21
2024-05-09T11:20:29.107Z,27.36
2024-05-09T11:21:21.879Z,27.84
2024-05-09T11:22:22.023Z,28.23
2024-05-09T11:23:21.867Z,28.53
2024-05-09T11:24:21.849Z,28.27
2024-05-09T11:25:21.832Z,29.86
2024-05-09T11:26:21.841Z,30.38
2024-05-09T11:27:21.811Z,29.98
2024-05-09T11:28:21.886Z,30.15
2024-05-09T11:29:21.825Z,29.50
2024-05-09T11:30:29.589Z,29.47
2024-05-09T11:31:22.132Z,26.86
2024-05-09T11:32:21.791Z,27.01
2024-05-09T11:33:21.795Z,27.08
2024-05-09T11:34:21.822Z,25.55
2024-05-09T11:35:21.744Z,24.92
2024-05-09T11:36:21.745Z,24.10
2024-05-09T11:37:21.815Z,22.99
2024-05-09T11:38:21.692Z,21.98
2024-05-09T11:39:21.709Z,20.69
2024-05-09T11:40:25.703Z,20.78
2024-05-09T11:41:21.690Z,19.59
2024-05-09T11:42:21.675Z,19.37
2024-05-09T11:43:21.796Z,19.29
2024-05-09T11:44:21.646Z,19.29
2024-05-09T11:45:21.664Z,19.08
2024-05-09T11:46:21.848Z,18.12
2024-05-09T11:47:21.766Z,18.74
2024-05-09T11:48:21.726Z,20.26
2024-05-09T11:49:25.368Z,21.27
2024-05-09T11:50:27.314Z,22.38
2024-05-09T11:51:21.619Z,22.39
2024-05-09T11:52:21.621Z,22.66
2024-05-09T11:53:21.598Z,20.96
2024-05-09T11:54:21.568Z,21.13
2024-05-09T11:55:23.230Z,20.92
2024-05-09T11:56:21.592Z,20.70
2024-05-09T11:57:21.538Z,20.90
2024-05-09T11:58:21.619Z,19.62
2024-05-09T11:59:21.529Z,19.60
2024-05-09T12:00:29.511Z,19.50
2024-05-09T12:01:23.081Z,19.40
2024-05-09T12:02:21.844Z,19.02
2024-05-09T12:03:21.662Z,18.05
2024-05-09T12:04:21.653Z,18.74
2024-05-09T12:05:21.583Z,18.97
2024-05-09T12:06:21.491Z,18.98
2024-05-09T12:07:21.654Z,19.37
2024-05-09T12:08:21.506Z,19.57
2024-05-09T12:09:21.446Z,19.55
2024-05-09T12:10:26.097Z,19.65
2024-05-09T12:11:21.467Z,20.61
2024-05-09T12:12:21.458Z,19.34
2024-05-09T12:13:21.612Z,19.13
2024-05-09T12:14:21.416Z,19.02
2024-05-09T12:15:21.389Z,18.64
2024-05-09T12:16:21.584Z,18.82
2024-05-09T12:17:21.463Z,19.11
2024-05-09T12:18:21.399Z,18.23
2024-05-09T12:19:21.475Z,18.04
2024-05-09T12:20:28.684Z,18.96
2024-05-09T12:21:21.330Z,19.87
2024-05-09T12:22:21.397Z,19.77
2024-05-09T12:23:21.329Z,20.77
2024-05-09T12:24:21.298Z,20.36
2024-05-09T12:25:21.439Z,21.26
2024-05-09T12:26:22.032Z,21.34
2024-05-09T12:27:21.290Z,20.95
2024-05-09T12:28:21.442Z,21.17
2024-05-09T12:29:21.254Z,21.87
2024-05-09T12:30:32.272Z,20.66
2024-05-09T12:31:21.297Z,19.65
2024-05-09T12:32:21.369Z,20.34
2024-05-09T12:33:21.440Z,19.94
2024-05-09T12:34:21.398Z,19.94
2024-05-09T12:35:21.211Z,19.65
2024-05-09T12:36:21.240Z,19.96
2024-05-09T12:37:21.268Z,21.15
2024-05-09T12:38:21.193Z,20.64
2024-05-09T12:39:21.245Z,20.23
2024-05-09T12:40:30.697Z,20.31
2024-05-09T12:41:21.189Z,19.70
2024-05-09T12:42:27.233Z,19.50
2024-05-09T12:43:21.189Z,19.78
2024-05-09T12:44:21.130Z,19.09
2024-05-09T12:45:21.141Z,19.68
2024-05-09T12:46:21.250Z,18.80
2024-05-09T12:47:21.176Z,19.00
2024-05-09T12:48:21.183Z,19.58
2024-05-09T12:49:21.354Z,19.38
2024-05-09T12:50:29.186Z,19.29
2024-05-09T12:51:21.065Z,19.18
2024-05-09T12:52:21.075Z,19.37
2024-05-09T12:53:21.098Z,18.01
2024-05-09T12:54:21.037Z,18.01
2024-05-09T12:55:21.053Z,18.21
2024-05-09T12:56:21.051Z,18.21
2024-05-09T12:57:21.026Z,18.19